sensor_id;sensor_type;location;lat;lon;timestamp;P1;durP1;ratioP1;P2;durP2;ratioP2
76765;SDS011;65707;52.362;6.588;2023-07-30T00:00:07;9.73;;;2.22;;
76765;SDS011;65707;52.362;6.588;2023-07-30T00:02:35;15.50;;;2.53;;
76765;SDS011;65707;52.362;6.588;2023-07-30T00:05:03;11.25;;;2.05;;
76765;SDS011;65707;52.362;6.588;2023-07-30T00:07:30;9.93;;;2.17;;
76765;SDS011;65707;52.362;6.588;2023-07-30T00:09:57;9.48;;;1.90;;
76765;SDS011;65707;52.362;6.588;2023-07-30T00:12:24;10.43;;;2.45;;
76765;SDS011;65707;52.362;6.588;2023-07-30T00:14:51;9.68;;;2.30;;
76765;SDS011;65707;52.362;6.588;2023-07-30T00:17:17;10.07;;;2.42;;
76765;SDS011;65707;52.362;6.588;2023-07-30T00:19:44;6.43;;;1.63;;
76765;SDS011;65707;52.362;6.588;2023-07-30T00:22:12;7.85;;;2.05;;
76765;SDS011;65707;52.362;6.588;2023-07-30T00:24:39;10.98;;;2.25;;
76765;SDS011;65707;52.362;6.588;2023-07-30T00:27:06;11.20;;;1.83;;
76765;SDS011;65707;52.362;6.588;2023-07-30T00:29:32;9.07;;;2.35;;
76765;SDS011;65707;52.362;6.588;2023-07-30T00:31:59;10.98;;;2.17;;
76765;SDS011;65707;52.362;6.588;2023-07-30T00:34:26;8.65;;;1.92;;
76765;SDS011;65707;52.362;6.588;2023-07-30T00:36:53;9.68;;;1.98;;
76765;SDS011;65707;52.362;6.588;2023-07-30T00:39:21;10.65;;;2.10;;
76765;SDS011;65707;52.362;6.588;2023-07-30T00:41:48;11.40;;;2.10;;
76765;SDS011;65707;52.362;6.588;2023-07-30T00:44:15;12.95;;;2.00;;
76765;SDS011;65707;52.362;6.588;2023-07-30T00:46:42;8.07;;;2.20;;
76765;SDS011;65707;52.362;6.588;2023-07-30T00:49:09;9.80;;;2.33;;
76765;SDS011;65707;52.362;6.588;2023-07-30T00:51:36;11.32;;;2.30;;
76765;SDS011;65707;52.362;6.588;2023-07-30T00:54:04;8.75;;;2.03;;
76765;SDS011;65707;52.362;6.588;2023-07-30T00:56:32;9.23;;;2.17;;
76765;SDS011;65707;52.362;6.588;2023-07-30T00:58:59;10.65;;;2.30;;
76765;SDS011;65707;52.362;6.588;2023-07-30T01:01:27;9.40;;;1.95;;
76765;SDS011;65707;52.362;6.588;2023-07-30T01:03:55;12.52;;;3.17;;
76765;SDS011;65707;52.362;6.588;2023-07-30T01:06:22;9.30;;;2.55;;
76765;SDS011;65707;52.362;6.588;2023-07-30T01:08:49;11.25;;;2.72;;
76765;SDS011;65707;52.362;6.588;2023-07-30T01:11:16;12.68;;;2.78;;
76765;SDS011;65707;52.362;6.588;2023-07-30T01:13:46;12.35;;;2.97;;
76765;SDS011;65707;52.362;6.588;2023-07-30T01:16:14;10.02;;;3.03;;
76765;SDS011;65707;52.362;6.588;2023-07-30T01:18:41;12.68;;;3.10;;
76765;SDS011;65707;52.362;6.588;2023-07-30T01:21:09;8.73;;;3.05;;
76765;SDS011;65707;52.362;6.588;2023-07-30T01:23:35;11.02;;;2.63;;
76765;SDS011;65707;52.362;6.588;2023-07-30T01:26:05;15.13;;;3.40;;
76765;SDS011;65707;52.362;6.588;2023-07-30T01:28:39;9.98;;;3.00;;
76765;SDS011;65707;52.362;6.588;2023-07-30T01:31:14;11.55;;;2.83;;
76765;SDS011;65707;52.362;6.588;2023-07-30T01:33:42;10.35;;;3.20;;
76765;SDS011;65707;52.362;6.588;2023-07-30T01:36:16;8.13;;;2.85;;
76765;SDS011;65707;52.362;6.588;2023-07-30T01:38:44;12.27;;;3.33;;
76765;SDS011;65707;52.362;6.588;2023-07-30T01:41:11;10.55;;;3.03;;
76765;SDS011;65707;52.362;6.588;2023-07-30T01:43:38;9.80;;;3.20;;
76765;SDS011;65707;52.362;6.588;2023-07-30T01:46:05;10.07;;;3.15;;
76765;SDS011;65707;52.362;6.588;2023-07-30T01:48:32;14.70;;;4.00;;
76765;SDS011;65707;52.362;6.588;2023-07-30T01:50:59;9.35;;;2.40;;
76765;SDS011;65707;52.362;6.588;2023-07-30T01:53:27;12.75;;;3.25;;
76765;SDS011;65707;52.362;6.588;2023-07-30T01:55:53;11.02;;;3.25;;
76765;SDS011;65707;52.362;6.588;2023-07-30T01:58:20;14.38;;;3.65;;
76765;SDS011;65707;52.362;6.588;2023-07-30T02:00:47;12.02;;;3.78;;
76765;SDS011;65707;52.362;6.588;2023-07-30T02:03:13;8.60;;;3.00;;
76765;SDS011;65707;52.362;6.588;2023-07-30T02:05:41;9.88;;;3.15;;
76765;SDS011;65707;52.362;6.588;2023-07-30T02:08:07;9.80;;;3.15;;
76765;SDS011;65707;52.362;6.588;2023-07-30T02:10:36;9.15;;;3.03;;
76765;SDS011;65707;52.362;6.588;2023-07-30T02:13:03;11.05;;;3.40;;
76765;SDS011;65707;52.362;6.588;2023-07-30T02:15:29;10.40;;;3.15;;
76765;SDS011;65707;52.362;6.588;2023-07-30T02:17:56;11.45;;;2.95;;
76765;SDS011;65707;52.362;6.588;2023-07-30T02:20:23;13.38;;;3.33;;
76765;SDS011;65707;52.362;6.588;2023-07-30T02:22:50;9.15;;;2.67;;
76765;SDS011;65707;52.362;6.588;2023-07-30T02:25:16;12.57;;;2.95;;
76765;SDS011;65707;52.362;6.588;2023-07-30T02:27:45;11.13;;;3.10;;
76765;SDS011;65707;52.362;6.588;2023-07-30T02:30:12;9.52;;;3.05;;
76765;SDS011;65707;52.362;6.588;2023-07-30T02:32:39;12.82;;;3.08;;
76765;SDS011;65707;52.362;6.588;2023-07-30T02:35:07;12.30;;;4.32;;
76765;SDS011;65707;52.362;6.588;2023-07-30T02:37:34;13.82;;;3.20;;
76765;SDS011;65707;52.362;6.588;2023-07-30T02:40:01;15.32;;;3.20;;
76765;SDS011;65707;52.362;6.588;2023-07-30T02:42:29;9.70;;;3.15;;
76765;SDS011;65707;52.362;6.588;2023-07-30T02:44:58;15.60;;;3.17;;
76765;SDS011;65707;52.362;6.588;2023-07-30T02:47:24;8.73;;;2.88;;
76765;SDS011;65707;52.362;6.588;2023-07-30T02:49:51;11.32;;;2.97;;
76765;SDS011;65707;52.362;6.588;2023-07-30T02:52:18;11.02;;;2.53;;
76765;SDS011;65707;52.362;6.588;2023-07-30T02:54:44;11.15;;;3.05;;
76765;SDS011;65707;52.362;6.588;2023-07-30T02:57:11;10.25;;;2.63;;
76765;SDS011;65707;52.362;6.588;2023-07-30T02:59:38;11.13;;;3.15;;
76765;SDS011;65707;52.362;6.588;2023-07-30T03:02:07;13.38;;;2.95;;
76765;SDS011;65707;52.362;6.588;2023-07-30T03:04:34;9.80;;;2.88;;
76765;SDS011;65707;52.362;6.588;2023-07-30T03:07:01;12.68;;;3.30;;
76765;SDS011;65707;52.362;6.588;2023-07-30T03:09:28;15.85;;;3.28;;
76765;SDS011;65707;52.362;6.588;2023-07-30T03:11:55;12.05;;;2.78;;
76765;SDS011;65707;52.362;6.588;2023-07-30T03:14:21;11.75;;;2.85;;
76765;SDS011;65707;52.362;6.588;2023-07-30T03:16:48;11.50;;;3.20;;
76765;SDS011;65707;52.362;6.588;2023-07-30T03:19:17;9.82;;;2.88;;
76765;SDS011;65707;52.362;6.588;2023-07-30T03:21:43;8.98;;;2.70;;
76765;SDS011;65707;52.362;6.588;2023-07-30T03:24:10;8.30;;;3.03;;
76765;SDS011;65707;52.362;6.588;2023-07-30T03:26:37;15.52;;;3.28;;
76765;SDS011;65707;52.362;6.588;2023-07-30T03:29:04;12.60;;;3.15;;
76765;SDS011;65707;52.362;6.588;2023-07-30T03:31:30;12.82;;;3.47;;
76765;SDS011;65707;52.362;6.588;2023-07-30T03:33:57;15.05;;;3.20;;
76765;SDS011;65707;52.362;6.588;2023-07-30T03:36:25;13.80;;;3.67;;
76765;SDS011;65707;52.362;6.588;2023-07-30T03:38:52;17.65;;;3.35;;
76765;SDS011;65707;52.362;6.588;2023-07-30T03:41:19;11.20;;;2.92;;
76765;SDS011;65707;52.362;6.588;2023-07-30T03:43:47;11.02;;;2.97;;
76765;SDS011;65707;52.362;6.588;2023-07-30T03:46:14;12.88;;;3.30;;
76765;SDS011;65707;52.362;6.588;2023-07-30T03:48:40;10.57;;;2.72;;
76765;SDS011;65707;52.362;6.588;2023-07-30T03:51:07;11.88;;;3.10;;
76765;SDS011;65707;52.362;6.588;2023-07-30T03:53:35;11.30;;;3.20;;
76765;SDS011;65707;52.362;6.588;2023-07-30T03:56:02;16.20;;;3.13;;
76765;SDS011;65707;52.362;6.588;2023-07-30T03:58:29;13.30;;;3.50;;
76765;SDS011;65707;52.362;6.588;2023-07-30T04:00:56;11.27;;;3.42;;
76765;SDS011;65707;52.362;6.588;2023-07-30T04:03:23;11.15;;;3.17;;
76765;SDS011;65707;52.362;6.588;2023-07-30T04:05:49;14.30;;;3.78;;
76765;SDS011;65707;52.362;6.588;2023-07-30T04:08:16;14.60;;;3.40;;
76765;SDS011;65707;52.362;6.588;2023-07-30T04:10:44;13.65;;;3.72;;
76765;SDS011;65707;52.362;6.588;2023-07-30T04:13:11;15.95;;;3.78;;
76765;SDS011;65707;52.362;6.588;2023-07-30T04:15:38;17.30;;;3.90;;
76765;SDS011;65707;52.362;6.588;2023-07-30T04:18:04;16.02;;;3.75;;
76765;SDS011;65707;52.362;6.588;2023-07-30T04:20:31;11.30;;;3.35;;
76765;SDS011;65707;52.362;6.588;2023-07-30T04:22:58;15.13;;;4.32;;
76765;SDS011;65707;52.362;6.588;2023-07-30T04:25:25;14.15;;;3.47;;
76765;SDS011;65707;52.362;6.588;2023-07-30T04:27:53;24.08;;;4.68;;
76765;SDS011;65707;52.362;6.588;2023-07-30T04:30:20;15.77;;;4.00;;
76765;SDS011;65707;52.362;6.588;2023-07-30T04:32:46;15.35;;;3.88;;
76765;SDS011;65707;52.362;6.588;2023-07-30T04:35:13;18.40;;;4.50;;
76765;SDS011;65707;52.362;6.588;2023-07-30T04:37:40;13.23;;;3.75;;
76765;SDS011;65707;52.362;6.588;2023-07-30T04:40:07;15.20;;;3.90;;
76765;SDS011;65707;52.362;6.588;2023-07-30T04:42:35;17.35;;;4.03;;
76765;SDS011;65707;52.362;6.588;2023-07-30T04:45:04;14.18;;;4.15;;
76765;SDS011;65707;52.362;6.588;2023-07-30T04:47:32;17.88;;;4.43;;
76765;SDS011;65707;52.362;6.588;2023-07-30T04:49:59;13.82;;;4.22;;
76765;SDS011;65707;52.362;6.588;2023-07-30T04:52:25;17.20;;;4.25;;
76765;SDS011;65707;52.362;6.588;2023-07-30T04:54:52;18.52;;;4.60;;
76765;SDS011;65707;52.362;6.588;2023-07-30T04:57:19;16.77;;;4.13;;
76765;SDS011;65707;52.362;6.588;2023-07-30T04:59:46;17.30;;;4.97;;
76765;SDS011;65707;52.362;6.588;2023-07-30T05:02:14;21.33;;;4.32;;
76765;SDS011;65707;52.362;6.588;2023-07-30T05:04:40;16.23;;;4.88;;
76765;SDS011;65707;52.362;6.588;2023-07-30T05:07:07;15.40;;;4.53;;
76765;SDS011;65707;52.362;6.588;2023-07-30T05:09:34;17.63;;;4.88;;
76765;SDS011;65707;52.362;6.588;2023-07-30T05:12:00;14.35;;;4.68;;
76765;SDS011;65707;52.362;6.588;2023-07-30T05:14:27;17.63;;;4.50;;
76765;SDS011;65707;52.362;6.588;2023-07-30T05:16:54;14.32;;;4.68;;
76765;SDS011;65707;52.362;6.588;2023-07-30T05:19:22;16.40;;;4.38;;
76765;SDS011;65707;52.362;6.588;2023-07-30T05:21:49;21.52;;;5.50;;
76765;SDS011;65707;52.362;6.588;2023-07-30T05:24:16;17.63;;;5.20;;
76765;SDS011;65707;52.362;6.588;2023-07-30T05:26:42;21.95;;;5.43;;
76765;SDS011;65707;52.362;6.588;2023-07-30T05:29:09;17.55;;;5.68;;
76765;SDS011;65707;52.362;6.588;2023-07-30T05:31:36;25.52;;;5.32;;
76765;SDS011;65707;52.362;6.588;2023-07-30T05:34:03;18.08;;;4.93;;
76765;SDS011;65707;52.362;6.588;2023-07-30T05:36:31;20.02;;;5.13;;
76765;SDS011;65707;52.362;6.588;2023-07-30T05:38:58;17.25;;;5.22;;
76765;SDS011;65707;52.362;6.588;2023-07-30T05:41:24;22.08;;;6.43;;
76765;SDS011;65707;52.362;6.588;2023-07-30T05:43:51;20.23;;;5.97;;
76765;SDS011;65707;52.362;6.588;2023-07-30T05:46:18;19.67;;;6.20;;
76765;SDS011;65707;52.362;6.588;2023-07-30T05:48:45;21.52;;;6.53;;
76765;SDS011;65707;52.362;6.588;2023-07-30T05:51:11;28.10;;;6.55;;
76765;SDS011;65707;52.362;6.588;2023-07-30T05:53:39;24.02;;;6.38;;
76765;SDS011;65707;52.362;6.588;2023-07-30T05:56:06;23.15;;;6.32;;
76765;SDS011;65707;52.362;6.588;2023-07-30T05:58:33;21.10;;;6.57;;
76765;SDS011;65707;52.362;6.588;2023-07-30T06:01:00;21.27;;;6.95;;
76765;SDS011;65707;52.362;6.588;2023-07-30T06:03:26;24.15;;;7.78;;
76765;SDS011;65707;52.362;6.588;2023-07-30T06:05:53;22.10;;;7.25;;
76765;SDS011;65707;52.362;6.588;2023-07-30T06:08:20;24.40;;;6.53;;
76765;SDS011;65707;52.362;6.588;2023-07-30T06:10:48;24.05;;;6.28;;
76765;SDS011;65707;52.362;6.588;2023-07-30T06:13:17;21.10;;;8.32;;
76765;SDS011;65707;52.362;6.588;2023-07-30T06:15:43;24.63;;;7.95;;
76765;SDS011;65707;52.362;6.588;2023-07-30T06:18:11;19.73;;;7.00;;
76765;SDS011;65707;52.362;6.588;2023-07-30T06:20:38;26.55;;;8.10;;
76765;SDS011;65707;52.362;6.588;2023-07-30T06:23:05;23.73;;;7.82;;
76765;SDS011;65707;52.362;6.588;2023-07-30T06:25:31;24.83;;;7.72;;
76765;SDS011;65707;52.362;6.588;2023-07-30T06:28:00;28.63;;;9.13;;
76765;SDS011;65707;52.362;6.588;2023-07-30T06:30:26;23.70;;;7.55;;
76765;SDS011;65707;52.362;6.588;2023-07-30T06:32:53;24.48;;;7.47;;
76765;SDS011;65707;52.362;6.588;2023-07-30T06:35:20;25.52;;;8.00;;
76765;SDS011;65707;52.362;6.588;2023-07-30T06:37:47;29.42;;;8.65;;
76765;SDS011;65707;52.362;6.588;2023-07-30T06:40:13;26.02;;;8.40;;
76765;SDS011;65707;52.362;6.588;2023-07-30T06:42:40;27.23;;;8.18;;
76765;SDS011;65707;52.362;6.588;2023-07-30T06:45:09;22.13;;;7.35;;
76765;SDS011;65707;52.362;6.588;2023-07-30T06:47:36;24.83;;;8.40;;
76765;SDS011;65707;52.362;6.588;2023-07-30T06:50:03;22.55;;;7.82;;
76765;SDS011;65707;52.362;6.588;2023-07-30T06:52:33;24.70;;;7.45;;
76765;SDS011;65707;52.362;6.588;2023-07-30T06:55:00;26.73;;;7.97;;
76765;SDS011;65707;52.362;6.588;2023-07-30T06:57:27;20.58;;;8.02;;
76765;SDS011;65707;52.362;6.588;2023-07-30T06:59:54;23.15;;;8.27;;
76765;SDS011;65707;52.362;6.588;2023-07-30T07:02:22;20.98;;;7.25;;
76765;SDS011;65707;52.362;6.588;2023-07-30T07:04:49;21.65;;;7.50;;
76765;SDS011;65707;52.362;6.588;2023-07-30T07:07:16;23.42;;;7.70;;
76765;SDS011;65707;52.362;6.588;2023-07-30T07:09:43;21.02;;;7.75;;
76765;SDS011;65707;52.362;6.588;2023-07-30T07:12:10;21.85;;;6.97;;
76765;SDS011;65707;52.362;6.588;2023-07-30T07:14:36;21.52;;;7.60;;
76765;SDS011;65707;52.362;6.588;2023-07-30T07:17:04;20.33;;;7.28;;
76765;SDS011;65707;52.362;6.588;2023-07-30T07:19:32;24.35;;;6.68;;
76765;SDS011;65707;52.362;6.588;2023-07-30T07:22:01;19.25;;;6.70;;
76765;SDS011;65707;52.362;6.588;2023-07-30T07:24:28;24.83;;;7.95;;
76765;SDS011;65707;52.362;6.588;2023-07-30T07:26:56;22.70;;;7.53;;
76765;SDS011;65707;52.362;6.588;2023-07-30T07:29:22;19.25;;;6.78;;
76765;SDS011;65707;52.362;6.588;2023-07-30T07:31:49;22.27;;;6.65;;
76765;SDS011;65707;52.362;6.588;2023-07-30T07:34:16;21.95;;;7.30;;
76765;SDS011;65707;52.362;6.588;2023-07-30T07:36:44;20.77;;;6.63;;
76765;SDS011;65707;52.362;6.588;2023-07-30T07:39:11;20.00;;;6.63;;
76765;SDS011;65707;52.362;6.588;2023-07-30T07:41:38;25.13;;;7.07;;
76765;SDS011;65707;52.362;6.588;2023-07-30T07:44:05;21.58;;;6.03;;
76765;SDS011;65707;52.362;6.588;2023-07-30T07:46:31;17.15;;;7.80;;
76765;SDS011;65707;52.362;6.588;2023-07-30T07:48:58;17.58;;;6.55;;
76765;SDS011;65707;52.362;6.588;2023-07-30T07:51:25;23.02;;;7.15;;
76765;SDS011;65707;52.362;6.588;2023-07-30T07:53:53;17.58;;;6.63;;
76765;SDS011;65707;52.362;6.588;2023-07-30T07:56:20;19.52;;;6.93;;
76765;SDS011;65707;52.362;6.588;2023-07-30T07:58:47;24.42;;;6.82;;
76765;SDS011;65707;52.362;6.588;2023-07-30T08:01:13;23.58;;;7.15;;
76765;SDS011;65707;52.362;6.588;2023-07-30T08:03:40;20.88;;;6.65;;
76765;SDS011;65707;52.362;6.588;2023-07-30T08:06:07;21.02;;;6.63;;
76765;SDS011;65707;52.362;6.588;2023-07-30T08:08:34;23.42;;;6.22;;
76765;SDS011;65707;52.362;6.588;2023-07-30T08:11:05;19.92;;;6.65;;
76765;SDS011;65707;52.362;6.588;2023-07-30T08:13:33;23.85;;;7.18;;
76765;SDS011;65707;52.362;6.588;2023-07-30T08:16:00;21.10;;;6.35;;
76765;SDS011;65707;52.362;6.588;2023-07-30T08:18:27;21.02;;;6.28;;
76765;SDS011;65707;52.362;6.588;2023-07-30T08:20:54;18.65;;;7.07;;
76765;SDS011;65707;52.362;6.588;2023-07-30T08:23:21;18.60;;;6.70;;
76765;SDS011;65707;52.362;6.588;2023-07-30T08:25:48;19.05;;;7.03;;
76765;SDS011;65707;52.362;6.588;2023-07-30T08:28:16;18.55;;;6.53;;
76765;SDS011;65707;52.362;6.588;2023-07-30T08:30:44;15.85;;;6.18;;
76765;SDS011;65707;52.362;6.588;2023-07-30T08:33:11;20.27;;;6.82;;
76765;SDS011;65707;52.362;6.588;2023-07-30T08:35:38;18.02;;;6.60;;
76765;SDS011;65707;52.362;6.588;2023-07-30T08:38:04;20.42;;;5.90;;
76765;SDS011;65707;52.362;6.588;2023-07-30T08:40:31;16.33;;;5.35;;
76765;SDS011;65707;52.362;6.588;2023-07-30T08:42:58;17.40;;;5.45;;
76765;SDS011;65707;52.362;6.588;2023-07-30T08:45:27;13.80;;;5.65;;
76765;SDS011;65707;52.362;6.588;2023-07-30T08:47:53;22.83;;;5.38;;
76765;SDS011;65707;52.362;6.588;2023-07-30T08:50:20;18.52;;;5.28;;
76765;SDS011;65707;52.362;6.588;2023-07-30T08:52:47;14.90;;;4.57;;
76765;SDS011;65707;52.362;6.588;2023-07-30T08:55:15;17.45;;;4.55;;
76765;SDS011;65707;52.362;6.588;2023-07-30T08:57:45;14.75;;;4.30;;
76765;SDS011;65707;52.362;6.588;2023-07-30T09:00:14;16.88;;;4.57;;
76765;SDS011;65707;52.362;6.588;2023-07-30T09:02:47;15.23;;;4.60;;
76765;SDS011;65707;52.362;6.588;2023-07-30T09:05:18;14.43;;;4.03;;
76765;SDS011;65707;52.362;6.588;2023-07-30T09:07:47;15.57;;;4.60;;
76765;SDS011;65707;52.362;6.588;2023-07-30T09:10:14;17.05;;;4.20;;
76765;SDS011;65707;52.362;6.588;2023-07-30T09:12:41;16.83;;;5.00;;
76765;SDS011;65707;52.362;6.588;2023-07-30T09:15:08;16.52;;;5.22;;
76765;SDS011;65707;52.362;6.588;2023-07-30T09:17:36;14.10;;;4.35;;
76765;SDS011;65707;52.362;6.588;2023-07-30T09:20:06;16.50;;;4.60;;
76765;SDS011;65707;52.362;6.588;2023-07-30T09:22:34;17.92;;;4.70;;
76765;SDS011;65707;52.362;6.588;2023-07-30T09:25:05;14.18;;;4.50;;
76765;SDS011;65707;52.362;6.588;2023-07-30T09:27:33;15.32;;;4.63;;
76765;SDS011;65707;52.362;6.588;2023-07-30T09:30:00;14.48;;;4.07;;
76765;SDS011;65707;52.362;6.588;2023-07-30T09:32:31;18.27;;;4.47;;
76765;SDS011;65707;52.362;6.588;2023-07-30T09:35:03;17.60;;;5.45;;
76765;SDS011;65707;52.362;6.588;2023-07-30T09:37:36;13.00;;;3.75;;
76765;SDS011;65707;52.362;6.588;2023-07-30T09:40:05;13.73;;;4.22;;
76765;SDS011;65707;52.362;6.588;2023-07-30T09:42:33;14.20;;;3.80;;
76765;SDS011;65707;52.362;6.588;2023-07-30T09:45:04;12.30;;;4.22;;
76765;SDS011;65707;52.362;6.588;2023-07-30T09:47:33;13.48;;;4.70;;
76765;SDS011;65707;52.362;6.588;2023-07-30T09:50:02;16.85;;;4.68;;
76765;SDS011;65707;52.362;6.588;2023-07-30T09:52:31;16.67;;;4.68;;
76765;SDS011;65707;52.362;6.588;2023-07-30T09:54:59;17.08;;;4.60;;
76765;SDS011;65707;52.362;6.588;2023-07-30T09:57:27;21.00;;;4.72;;
76765;SDS011;65707;52.362;6.588;2023-07-30T09:59:54;13.63;;;4.47;;
76765;SDS011;65707;52.362;6.588;2023-07-30T10:02:20;15.82;;;4.75;;
76765;SDS011;65707;52.362;6.588;2023-07-30T10:04:50;13.38;;;4.05;;
76765;SDS011;65707;52.362;6.588;2023-07-30T10:07:23;15.20;;;4.70;;
76765;SDS011;65707;52.362;6.588;2023-07-30T10:09:58;13.45;;;4.40;;
76765;SDS011;65707;52.362;6.588;2023-07-30T10:12:29;12.93;;;3.50;;
76765;SDS011;65707;52.362;6.588;2023-07-30T10:15:00;10.50;;;3.55;;
76765;SDS011;65707;52.362;6.588;2023-07-30T10:17:27;12.45;;;3.70;;
76765;SDS011;65707;52.362;6.588;2023-07-30T10:19:54;12.85;;;3.30;;
76765;SDS011;65707;52.362;6.588;2023-07-30T10:22:22;14.05;;;3.53;;
76765;SDS011;65707;52.362;6.588;2023-07-30T10:24:58;13.80;;;3.55;;
76765;SDS011;65707;52.362;6.588;2023-07-30T10:27:35;14.20;;;3.33;;
76765;SDS011;65707;52.362;6.588;2023-07-30T10:30:08;10.68;;;3.05;;
76765;SDS011;65707;52.362;6.588;2023-07-30T10:32:40;15.70;;;3.60;;
76765;SDS011;65707;52.362;6.588;2023-07-30T10:35:08;15.65;;;3.33;;
76765;SDS011;65707;52.362;6.588;2023-07-30T10:37:35;11.70;;;3.30;;
76765;SDS011;65707;52.362;6.588;2023-07-30T10:40:16;11.98;;;3.42;;
76765;SDS011;65707;52.362;6.588;2023-07-30T10:42:44;13.90;;;3.30;;
76765;SDS011;65707;52.362;6.588;2023-07-30T10:45:10;13.88;;;3.85;;
76765;SDS011;65707;52.362;6.588;2023-07-30T10:47:37;10.35;;;3.05;;
76765;SDS011;65707;52.362;6.588;2023-07-30T10:50:07;12.65;;;2.70;;
76765;SDS011;65707;52.362;6.588;2023-07-30T10:52:36;8.82;;;2.75;;
76765;SDS011;65707;52.362;6.588;2023-07-30T10:55:03;12.55;;;2.70;;
76765;SDS011;65707;52.362;6.588;2023-07-30T10:57:32;9.40;;;2.63;;
76765;SDS011;65707;52.362;6.588;2023-07-30T11:00:00;10.82;;;2.50;;
76765;SDS011;65707;52.362;6.588;2023-07-30T11:02:27;14.32;;;2.40;;
76765;SDS011;65707;52.362;6.588;2023-07-30T11:04:55;9.05;;;2.45;;
76765;SDS011;65707;52.362;6.588;2023-07-30T11:07:21;9.63;;;2.33;;
76765;SDS011;65707;52.362;6.588;2023-07-30T11:09:57;10.85;;;2.53;;
76765;SDS011;65707;52.362;6.588;2023-07-30T11:12:27;11.88;;;2.30;;
76765;SDS011;65707;52.362;6.588;2023-07-30T11:15:01;7.75;;;1.80;;
76765;SDS011;65707;52.362;6.588;2023-07-30T11:17:29;11.90;;;2.05;;
76765;SDS011;65707;52.362;6.588;2023-07-30T11:19:55;11.00;;;2.20;;
76765;SDS011;65707;52.362;6.588;2023-07-30T11:22:29;9.63;;;1.85;;
76765;SDS011;65707;52.362;6.588;2023-07-30T11:24:56;12.10;;;1.60;;
76765;SDS011;65707;52.362;6.588;2023-07-30T11:27:24;8.30;;;1.70;;
76765;SDS011;65707;52.362;6.588;2023-07-30T11:29:54;9.30;;;1.70;;
76765;SDS011;65707;52.362;6.588;2023-07-30T11:32:22;10.73;;;2.13;;
76765;SDS011;65707;52.362;6.588;2023-07-30T11:34:51;10.30;;;1.90;;
76765;SDS011;65707;52.362;6.588;2023-07-30T11:37:19;7.18;;;1.33;;
76765;SDS011;65707;52.362;6.588;2023-07-30T11:39:46;9.82;;;2.00;;
76765;SDS011;65707;52.362;6.588;2023-07-30T11:42:14;9.52;;;1.98;;
76765;SDS011;65707;52.362;6.588;2023-07-30T11:44:41;10.85;;;2.15;;
76765;SDS011;65707;52.362;6.588;2023-07-30T11:47:08;13.00;;;2.80;;
76765;SDS011;65707;52.362;6.588;2023-07-30T11:49:36;13.80;;;2.60;;
76765;SDS011;65707;52.362;6.588;2023-07-30T11:52:04;12.80;;;2.35;;
76765;SDS011;65707;52.362;6.588;2023-07-30T11:54:32;8.57;;;2.47;;
76765;SDS011;65707;52.362;6.588;2023-07-30T11:56:59;9.57;;;2.22;;
76765;SDS011;65707;52.362;6.588;2023-07-30T11:59:26;9.07;;;2.25;;
76765;SDS011;65707;52.362;6.588;2023-07-30T12:01:53;6.95;;;2.20;;
76765;SDS011;65707;52.362;6.588;2023-07-30T12:04:19;9.88;;;1.92;;
76765;SDS011;65707;52.362;6.588;2023-07-30T12:06:48;11.68;;;2.38;;
76765;SDS011;65707;52.362;6.588;2023-07-30T12:09:19;7.35;;;1.30;;
76765;SDS011;65707;52.362;6.588;2023-07-30T12:11:48;8.05;;;1.48;;
76765;SDS011;65707;52.362;6.588;2023-07-30T12:14:17;8.13;;;1.50;;
76765;SDS011;65707;52.362;6.588;2023-07-30T12:16:45;9.65;;;1.63;;
76765;SDS011;65707;52.362;6.588;2023-07-30T12:19:12;9.40;;;1.45;;
76765;SDS011;65707;52.362;6.588;2023-07-30T12:21:38;7.85;;;1.40;;
76765;SDS011;65707;52.362;6.588;2023-07-30T12:24:07;8.90;;;1.50;;
76765;SDS011;65707;52.362;6.588;2023-07-30T12:26:34;8.07;;;1.40;;
76765;SDS011;65707;52.362;6.588;2023-07-30T12:29:01;9.32;;;1.52;;
76765;SDS011;65707;52.362;6.588;2023-07-30T12:31:27;7.63;;;1.50;;
76765;SDS011;65707;52.362;6.588;2023-07-30T12:33:54;5.75;;;1.52;;
76765;SDS011;65707;52.362;6.588;2023-07-30T12:36:21;8.75;;;1.50;;
76765;SDS011;65707;52.362;6.588;2023-07-30T12:38:48;8.93;;;2.10;;
76765;SDS011;65707;52.362;6.588;2023-07-30T12:41:18;8.85;;;1.27;;
76765;SDS011;65707;52.362;6.588;2023-07-30T12:43:50;9.07;;;1.75;;
76765;SDS011;65707;52.362;6.588;2023-07-30T12:46:17;8.57;;;1.27;;
76765;SDS011;65707;52.362;6.588;2023-07-30T12:48:44;9.68;;;1.50;;
76765;SDS011;65707;52.362;6.588;2023-07-30T12:51:11;8.00;;;1.70;;
76765;SDS011;65707;52.362;6.588;2023-07-30T12:53:38;9.52;;;1.40;;
76765;SDS011;65707;52.362;6.588;2023-07-30T12:56:04;8.02;;;1.60;;
76765;SDS011;65707;52.362;6.588;2023-07-30T12:58:32;9.00;;;1.83;;
76765;SDS011;65707;52.362;6.588;2023-07-30T13:00:59;7.55;;;1.83;;
76765;SDS011;65707;52.362;6.588;2023-07-30T13:03:26;9.45;;;1.67;;
76765;SDS011;65707;52.362;6.588;2023-07-30T13:05:53;6.82;;;1.45;;
76765;SDS011;65707;52.362;6.588;2023-07-30T13:08:20;8.32;;;1.30;;
76765;SDS011;65707;52.362;6.588;2023-07-30T13:10:47;8.05;;;1.33;;
76765;SDS011;65707;52.362;6.588;2023-07-30T13:13:13;8.38;;;1.45;;
76765;SDS011;65707;52.362;6.588;2023-07-30T13:15:41;8.25;;;1.42;;
76765;SDS011;65707;52.362;6.588;2023-07-30T13:18:08;6.40;;;1.40;;
76765;SDS011;65707;52.362;6.588;2023-07-30T13:20:35;9.52;;;1.30;;
76765;SDS011;65707;52.362;6.588;2023-07-30T13:23:02;7.25;;;1.35;;
76765;SDS011;65707;52.362;6.588;2023-07-30T13:25:29;7.90;;;1.52;;
76765;SDS011;65707;52.362;6.588;2023-07-30T13:27:56;8.20;;;1.70;;
76765;SDS011;65707;52.362;6.588;2023-07-30T13:30:23;4.90;;;1.20;;
76765;SDS011;65707;52.362;6.588;2023-07-30T13:32:51;7.20;;;1.38;;
76765;SDS011;65707;52.362;6.588;2023-07-30T13:35:18;7.07;;;1.15;;
76765;SDS011;65707;52.362;6.588;2023-07-30T13:37:44;7.90;;;1.27;;
76765;SDS011;65707;52.362;6.588;2023-07-30T13:40:11;4.95;;;1.20;;
76765;SDS011;65707;52.362;6.588;2023-07-30T13:42:38;7.97;;;1.35;;
76765;SDS011;65707;52.362;6.588;2023-07-30T13:45:05;8.75;;;1.77;;
76765;SDS011;65707;52.362;6.588;2023-07-30T13:47:32;7.32;;;1.20;;
76765;SDS011;65707;52.362;6.588;2023-07-30T13:50:00;9.05;;;1.75;;
76765;SDS011;65707;52.362;6.588;2023-07-30T13:52:27;6.15;;;1.00;;
76765;SDS011;65707;52.362;6.588;2023-07-30T13:54:54;6.53;;;1.20;;
76765;SDS011;65707;52.362;6.588;2023-07-30T13:57:21;6.70;;;1.50;;
76765;SDS011;65707;52.362;6.588;2023-07-30T13:59:49;6.10;;;1.08;;
76765;SDS011;65707;52.362;6.588;2023-07-30T14:02:16;7.07;;;1.00;;
76765;SDS011;65707;52.362;6.588;2023-07-30T14:04:43;7.47;;;1.20;;
76765;SDS011;65707;52.362;6.588;2023-07-30T14:07:11;7.25;;;1.17;;
76765;SDS011;65707;52.362;6.588;2023-07-30T14:09:38;6.72;;;1.27;;
76765;SDS011;65707;52.362;6.588;2023-07-30T14:12:05;5.55;;;1.00;;
76765;SDS011;65707;52.362;6.588;2023-07-30T14:14:32;9.25;;;1.33;;
76765;SDS011;65707;52.362;6.588;2023-07-30T14:16:59;5.60;;;0.90;;
76765;SDS011;65707;52.362;6.588;2023-07-30T14:19:31;8.35;;;1.33;;
76765;SDS011;65707;52.362;6.588;2023-07-30T14:21:58;4.50;;;0.90;;
76765;SDS011;65707;52.362;6.588;2023-07-30T14:24:26;7.72;;;1.00;;
76765;SDS011;65707;52.362;6.588;2023-07-30T14:26:53;5.18;;;1.30;;
76765;SDS011;65707;52.362;6.588;2023-07-30T14:29:20;4.72;;;1.02;;
76765;SDS011;65707;52.362;6.588;2023-07-30T14:31:47;7.57;;;1.10;;
76765;SDS011;65707;52.362;6.588;2023-07-30T14:34:14;6.38;;;1.02;;
76765;SDS011;65707;52.362;6.588;2023-07-30T14:36:41;8.05;;;1.58;;
76765;SDS011;65707;52.362;6.588;2023-07-30T14:39:08;6.85;;;1.38;;